Time;durP1;ratioP1;P1;durP2;ratioP2;P2;SDS_P1;SDS_P2;PMS_P1;PMS_P2;Temp;Humidity;BMP_temperature;BMP_pressure;BME280_temperature;BME280_humidity;BME280_pressure;Samples;Min_cycle;Max_cycle;Signal;HPM_P1;HPM_P2
2022/04/16 00:01:19;;;;;;;5.60;5.10;;;16.60;81.90;;;;;;5041163;28;20468;-66
2022/04/16 00:03:47;;;;;;;5.70;5.30;;;16.60;81.80;;;;;;5030009;28;20508;-65
2022/04/16 00:06:15;;;;;;;6.00;5.50;;;16.60;81.90;;;;;;5049688;28;20471;-67
2022/04/16 00:08:43;;;;;;;5.73;5.23;;;16.60;81.80;;;;;;5040309;28;20441;-66
2022/04/16 00:11:11;;;;;;;5.50;5.00;;;16.60;82.00;;;;;;5050401;28;20949;-67
2022/04/16 00:13:40;;;;;;;5.53;5.03;;;16.60;81.80;;;;;;5041042;28;20452;-65
2022/04/16 00:16:10;;;;;;;5.40;5.00;;;16.60;81.80;;;;;;5040938;28;20533;-67
2022/04/16 00:18:38;;;;;;;5.00;4.60;;;16.60;81.90;;;;;;5025943;28;20539;-67
2022/04/16 00:21:06;;;;;;;4.47;4.10;;;16.60;81.90;;;;;;5044437;28;20520;-67
2022/04/16 00:23:34;;;;;;;4.80;4.50;;;16.60;81.90;;;;;;5044377;28;20468;-66
2022/04/16 00:26:02;;;;;;;5.50;5.00;;;16.60;81.80;;;;;;5036394;28;20471;-66
2022/04/16 00:28:31;;;;;;;5.70;5.20;;;16.60;81.80;;;;;;5039603;28;20427;-67
2022/04/16 00:30:59;;;;;;;4.87;4.47;;;16.60;81.70;;;;;;5011586;28;21056;-65
2022/04/16 00:33:28;;;;;;;5.03;4.63;;;16.60;81.90;;;;;;5042732;28;20521;-65
2022/04/16 00:35:56;;;;;;;5.10;4.70;;;16.50;81.60;;;;;;5020733;28;20476;-73
2022/04/16 00:38:24;;;;;;;7.40;5.80;;;16.50;81.60;;;;;;5030923;28;20440;-73
2022/04/16 00:40:53;;;;;;;4.60;4.30;;;16.60;81.90;;;;;;5031019;28;20460;-73
2022/04/16 00:43:22;;;;;;;5.50;5.10;;;16.50;81.70;;;;;;5036153;28;20545;-73
2022/04/16 00:45:50;;;;;;;4.87;4.47;;;16.50;81.60;;;;;;5033799;28;20517;-73
2022/04/16 00:48:19;;;;;;;5.73;5.23;;;16.50;81.60;;;;;;5032907;28;20431;-73
2022/04/16 00:50:50;;;;;;;4.83;4.53;;;16.50;81.70;;;;;;5022769;28;20475;-73
2022/04/16 00:53:19;;;;;;;4.90;4.50;;;16.50;81.80;;;;;;5042642;28;20524;-73
2022/04/16 00:55:47;;;;;;;5.30;4.90;;;16.50;81.90;;;;;;5033463;28;20525;-73
2022/04/16 00:58:16;;;;;;;5.03;4.63;;;16.50;81.70;;;;;;5043187;28;20435;-72
2022/04/16 01:00:44;;;;;;;4.97;4.57;;;16.50;81.80;;;;;;5049496;28;20525;-73
2022/04/16 01:03:12;;;;;;;5.37;4.87;;;16.50;81.70;;;;;;5026115;28;20826;-72
2022/04/16 01:05:40;;;;;;;4.47;4.07;;;16.50;81.90;;;;;;5048330;28;20483;-73
2022/04/16 01:08:10;;;;;;;5.07;4.67;;;16.50;81.80;;;;;;5043720;28;20436;-73
2022/04/16 01:10:38;;;;;;;4.53;4.23;;;16.50;81.80;;;;;;5011002;28;21064;-73
2022/04/16 01:13:07;;;;;;;5.37;4.97;;;16.50;81.70;;;;;;5018360;28;20522;-73
2022/04/16 01:15:36;;;;;;;5.70;5.20;;;16.50;81.90;;;;;;5046094;28;20475;-72
2022/04/16 01:18:05;;;;;;;4.73;4.33;;;16.50;81.70;;;;;;5022517;28;20453;-73
2022/04/16 01:20:35;;;;;;;4.00;3.70;;;16.50;81.70;;;;;;5050650;28;20532;-72
2022/04/16 01:23:05;;;;;;;5.37;4.90;;;16.50;81.70;;;;;;5048433;28;20489;-72
2022/04/16 01:25:35;;;;;;;4.67;4.27;;;16.50;81.70;;;;;;5047435;28;20458;-73
2022/04/16 01:28:04;;;;;;;5.90;5.40;;;16.50;81.70;;;;;;5027112;28;20455;-72
2022/04/16 01:30:32;;;;;;;5.03;4.63;;;16.40;81.60;;;;;;5034160;28;20869;-73
2022/04/16 01:33:01;;;;;;;5.13;4.67;;;16.40;81.50;;;;;;5025298;28;20863;-73
2022/04/16 01:35:30;;;;;;;4.87;4.40;;;16.40;81.60;;;;;;5038386;28;20471;-72
2022/04/16 01:37:59;;;;;;;5.30;4.90;;;16.40;81.50;;;;;;5035499;28;20456;-73
2022/04/16 01:40:28;;;;;;;4.70;4.40;;;16.40;81.50;;;;;;5038372;28;20984;-73
2022/04/16 01:42:57;;;;;;;5.27;4.77;;;16.40;81.60;;;;;;5050091;28;20788;-72
2022/04/16 01:45:26;;;;;;;4.53;4.13;;;16.40;81.60;;;;;;5047668;28;20637;-72
2022/04/16 01:47:54;;;;;;;4.50;4.20;;;16.40;81.80;;;;;;5047974;28;20443;-73
2022/04/16 01:50:23;;;;;;;4.83;4.43;;;16.40;81.70;;;;;;5037167;28;21000;-73
2022/04/16 01:52:52;;;;;;;4.60;4.20;;;16.40;81.60;;;;;;5044750;28;20467;-72
2022/04/16 01:55:20;;;;;;;4.90;4.50;;;16.40;81.70;;;;;;5031228;28;20962;-73
2022/04/16 01:57:50;;;;;;;4.60;4.20;;;16.40;81.70;;;;;;5037788;28;20435;-73
2022/04/16 02:00:19;;;;;;;4.27;3.87;;;16.40;81.70;;;;;;5042566;28;20471;-72
2022/04/16 02:02:48;;;;;;;4.20;3.90;;;16.40;81.60;;;;;;5038113;28;21019;-71
2022/04/16 02:05:16;;;;;;;5.17;4.20;;;16.40;81.70;;;;;;5052630;28;20965;-73
2022/04/16 02:07:44;;;;;;;4.30;3.90;;;16.30;81.60;;;;;;5049095;28;20957;-73
2022/04/16 02:10:16;;;;;;;5.10;4.60;;;16.30;81.60;;;;;;5032479;28;20460;-73
2022/04/16 02:12:45;;;;;;;4.60;4.30;;;16.30;81.60;;;;;;5039584;28;20452;-72
2022/04/16 02:15:15;;;;;;;4.97;4.57;;;16.30;81.70;;;;;;5041637;28;20463;-73
2022/04/16 02:17:43;;;;;;;5.10;4.60;;;16.30;81.80;;;;;;5025330;28;20515;-73
2022/04/16 02:20:12;;;;;;;4.30;3.90;;;16.30;81.70;;;;;;5049087;28;20520;-72
2022/04/16 02:22:44;;;;;;;4.57;4.17;;;16.30;81.60;;;;;;5048452;28;20436;-73
2022/04/16 02:25:14;;;;;;;4.53;4.13;;;16.30;81.70;;;;;;5041766;28;20509;-73
2022/04/16 02:27:42;;;;;;;4.67;4.37;;;16.30;81.60;;;;;;5050532;28;20517;-73
2022/04/16 02:30:13;;;;;;;4.37;4.07;;;16.30;81.60;;;;;;5049319;28;20439;-72
2022/04/16 02:32:44;;;;;;;4.40;4.10;;;16.30;81.70;;;;;;5043097;28;20798;-73
2022/04/16 02:35:14;;;;;;;4.73;4.33;;;16.30;81.70;;;;;;5040317;28;20461;-73
2022/04/16 02:37:43;;;;;;;4.43;4.03;;;16.30;81.70;;;;;;5033777;28;20933;-73
2022/04/16 02:40:12;;;;;;;4.30;3.97;;;16.30;81.70;;;;;;5046196;28;21211;-73
2022/04/16 02:42:42;;;;;;;4.47;4.17;;;16.20;81.70;;;;;;5039852;28;20988;-73
2022/04/16 02:47:59;;;;;;;4.20;3.90;;;16.20;81.60;;;;;;5047353;28;20481;-73
2022/04/16 02:50:28;;;;;;;4.50;4.10;;;16.20;81.70;;;;;;5039868;28;20981;-73
2022/04/16 02:52:58;;;;;;;4.03;3.73;;;16.20;81.70;;;;;;5033193;28;20877;-73
2022/04/16 02:55:26;;;;;;;4.53;4.20;;;16.20;83.00;;;;;;5032074;28;20481;-73
2022/04/16 02:57:55;;;;;;;4.83;4.43;;;16.20;81.70;;;;;;5048365;28;20443;-73
2022/04/16 03:00:25;;;;;;;4.50;4.20;;;16.20;81.60;;;;;;5040682;28;20451;-73
2022/04/16 03:02:54;;;;;;;4.13;3.83;;;16.20;81.60;;;;;;5036786;28;20451;-73
2022/04/16 03:05:23;;;;;;;4.23;3.90;;;16.20;81.60;;;;;;5035556;28;20483;-73
2022/04/16 03:07:51;;;;;;;4.60;4.20;;;16.20;81.80;;;;;;5048528;28;21003;-73
2022/04/16 03:10:19;;;;;;;4.03;3.50;;;16.20;81.80;;;;;;5030422;28;20514;-73
2022/04/16 03:12:49;;;;;;;4.43;4.03;;;16.20;81.90;;;;;;5035983;28;20498;-73
2022/04/16 03:18:07;;;;;;;4.97;4.47;;;16.10;81.90;;;;;;5031639;28;20447;-73
2022/04/16 03:20:37;;;;;;;4.23;3.93;;;16.10;81.60;;;;;;5041277;28;20844;-73
2022/04/16 03:23:06;;;;;;;4.40;3.93;;;16.10;81.60;;;;;;5039748;28;20443;-73
2022/04/16 03:25:34;;;;;;;4.57;4.17;;;16.10;81.60;;;;;;5026150;28;20481;-73
2022/04/16 03:28:03;;;;;;;4.87;4.47;;;16.10;81.60;;;;;;5038183;28;20462;-73
2022/04/16 03:30:31;;;;;;;5.70;4.73;;;16.10;81.60;;;;;;5036890;28;20460;-73
2022/04/16 03:32:59;;;;;;;4.93;4.50;;;16.10;81.80;;;;;;5029194;28;20460;-73
2022/04/16 03:35:27;;;;;;;4.93;4.30;;;16.10;81.70;;;;;;5047837;28;21018;-72
2022/04/16 03:37:57;;;;;;;5.00;4.60;;;16.10;81.70;;;;;;5034418;28;21137;-73
2022/04/16 03:40:26;;;;;;;4.67;4.27;;;16.10;81.70;;;;;;5034113;28;20516;-73
2022/04/16 03:42:58;;;;;;;5.83;4.80;;;16.10;81.70;;;;;;5052041;28;20431;-73
2022/04/16 03:45:28;;;;;;;4.70;4.20;;;16.00;81.50;;;;;;5032991;28;20464;-72
2022/04/16 03:47:57;;;;;;;4.90;4.50;;;16.00;81.70;;;;;;5042137;28;20443;-72
2022/04/16 03:50:27;;;;;;;5.20;4.50;;;16.00;81.70;;;;;;5030959;28;20536;-73
2022/04/16 03:52:59;;;;;;;4.63;4.23;;;16.00;81.60;;;;;;5033795;28;20478;-72
2022/04/16 04:01:02;;;;;;;4.20;3.90;;;16.00;81.60;;;;;;5049166;28;20498;-73
2022/04/16 04:03:30;;;;;;;4.80;4.27;;;16.00;81.80;;;;;;5027350;28;20464;-72
2022/04/16 04:06:00;;;;;;;5.37;4.97;;;16.00;81.80;;;;;;5033968;28;20459;-73
2022/04/16 04:08:31;;;;;;;4.47;4.07;;;16.00;81.60;;;;;;5042933;28;20476;-73
2022/04/16 04:10:59;;;;;;;4.77;4.37;;;16.00;81.80;;;;;;5034183;28;20467;-72
2022/04/16 04:13:27;;;;;;;4.37;3.97;;;16.00;81.70;;;;;;5049969;28;20474;-73
2022/04/16 04:15:55;;;;;;;4.73;4.30;;;16.00;81.70;;;;;;5043076;28;20473;-73
2022/04/16 04:18:24;;;;;;;4.00;3.70;;;15.90;81.60;;;;;;5030281;28;20474;-73
2022/04/16 04:20:53;;;;;;;3.83;3.53;;;15.90;81.70;;;;;;5033444;28;20479;-73
2022/04/16 04:23:22;;;;;;;4.20;3.90;;;15.90;81.70;;;;;;5031495;28;20498;-73
2022/04/16 04:25:52;;;;;;;4.70;4.30;;;15.90;81.70;;;;;;5014094;28;20487;-73
2022/04/16 04:28:20;;;;;;;4.70;4.30;;;15.90;81.60;;;;;;5022851;28;20439;-73
2022/04/16 04:30:48;;;;;;;4.40;4.00;;;15.90;81.60;;;;;;5039682;28;20543;-73
2022/04/16 04:33:16;;;;;;;5.17;4.10;;;15.90;81.60;;;;;;5028724;28;20468;-73
2022/04/16 04:35:44;;;;;;;4.30;3.93;;;15.90;81.70;;;;;;5048937;28;20864;-72
2022/04/16 04:38:12;;;;;;;4.57;4.17;;;15.90;81.70;;;;;;5048599;28;20475;-73
2022/04/16 04:40:40;;;;;;;4.67;4.27;;;15.90;81.70;;;;;;5025847;28;20470;-72
2022/04/16 04:43:09;;;;;;;4.93;4.53;;;15.90;81.80;;;;;;5033077;28;20473;-72
2022/04/16 04:45:38;;;;;;;4.57;4.17;;;15.90;81.80;;;;;;5050205;28;20470;-73
2022/04/16 04:48:07;;;;;;;4.20;3.80;;;15.90;81.70;;;;;;5034394;28;20420;-72
2022/04/16 04:50:36;;;;;;;4.67;4.30;;;15.80;81.70;;;;;;5027564;28;20475;-73
2022/04/16 04:53:04;;;;;;;4.67;4.27;;;15.80;81.60;;;;;;5032615;28;20471;-73
2022/04/16 04:55:32;;;;;;;4.83;4.23;;;15.80;81.70;;;;;;5016758;28;20477;-73
2022/04/16 04:58:00;;;;;;;5.43;5.03;;;15.80;81.70;;;;;;5037676;28;20423;-73
2022/04/16 05:00:30;;;;;;;4.63;4.23;;;15.80;81.80;;;;;;5044793;28;20567;-73
2022/04/16 05:02:58;;;;;;;4.40;4.00;;;15.80;81.90;;;;;;5039340;28;20445;-71
2022/04/16 05:05:26;;;;;;;5.57;5.07;;;15.80;81.70;;;;;;5048483;28;20829;-72
2022/04/16 05:07:54;;;;;;;5.50;5.00;;;15.80;81.70;;;;;;5037945;28;20853;-73
2022/04/16 05:10:23;;;;;;;4.27;3.97;;;15.80;81.70;;;;;;5025338;28;20982;-73
2022/04/16 05:12:51;;;;;;;5.20;4.80;;;15.80;81.70;;;;;;5038618;28;20861;-73
2022/04/16 05:15:19;;;;;;;5.47;4.97;;;15.80;81.70;;;;;;5050042;28;20988;-72
2022/04/16 05:17:48;;;;;;;6.27;5.67;;;15.80;81.70;;;;;;5026604;28;20449;-72
2022/04/16 05:20:17;;;;;;;4.43;4.10;;;15.80;81.80;;;;;;5035674;28;20456;-73
2022/04/16 05:22:45;;;;;;;4.70;4.30;;;15.70;81.60;;;;;;5041925;28;20470;-73
2022/04/16 05:25:13;;;;;;;4.37;4.03;;;15.80;81.70;;;;;;5029545;28;20512;-73
2022/04/16 05:27:41;;;;;;;5.03;4.63;;;15.70;81.70;;;;;;5035802;28;20443;-73
2022/04/16 05:30:22;;;;;;;5.20;4.70;;;15.70;82.80;;;;;;5050936;28;20490;-73
2022/04/16 05:32:51;;;;;;;4.53;4.13;;;15.70;81.70;;;;;;5026957;28;20437;-72
2022/04/16 05:35:20;;;;;;;6.67;5.10;;;15.70;81.70;;;;;;5050581;28;20482;-73
2022/04/16 05:37:48;;;;;;;5.70;5.10;;;15.70;81.80;;;;;;5047871;28;20427;-73
2022/04/16 05:40:16;;;;;;;5.23;4.73;;;15.70;81.80;;;;;;5036910;28;20546;-73
2022/04/16 05:42:44;;;;;;;4.20;3.90;;;15.70;81.90;;;;;;5047752;28;20436;-71
2022/04/16 05:45:14;;;;;;;5.10;4.70;;;15.70;81.80;;;;;;5048835;28;20561;-73
2022/04/16 05:47:44;;;;;;;5.00;4.60;;;15.70;82.10;;;;;;5034305;28;20463;-73
2022/04/16 05:50:14;;;;;;;5.07;4.67;;;15.70;81.80;;;;;;5042178;28;20539;-73
2022/04/16 05:52:42;;;;;;;5.60;5.00;;;15.70;81.80;;;;;;5043468;28;20432;-73
2022/04/16 05:55:11;;;;;;;4.67;4.20;;;15.70;81.80;;;;;;5032560;28;20467;-73
2022/04/16 05:57:40;;;;;;;5.67;5.17;;;15.70;81.90;;;;;;5033789;28;20420;-72
2022/04/16 06:00:12;;;;;;;5.17;4.73;;;15.70;81.90;;;;;;5041458;28;20953;-73
2022/04/16 06:02:42;;;;;;;5.23;4.73;;;15.70;81.90;;;;;;5031513;28;20449;-73
2022/04/16 06:05:10;;;;;;;5.07;4.67;;;15.60;81.80;;;;;;5028755;28;20499;-73
2022/04/16 06:07:39;;;;;;;5.10;4.60;;;15.60;81.80;;;;;;5033940;28;20825;-74
2022/04/16 06:10:08;;;;;;;5.90;4.47;;;15.60;83.10;;;;;;5032783;28;20464;-73
2022/04/16 06:12:36;;;;;;;5.57;5.07;;;15.60;81.90;;;;;;5042048;28;20454;-73
2022/04/16 06:15:05;;;;;;;4.57;4.10;;;15.60;82.00;;;;;;5039385;28;20537;-73
2022/04/16 06:17:33;;;;;;;5.13;4.63;;;15.60;82.00;;;;;;5050448;28;20435;-73
2022/04/16 06:20:01;;;;;;;4.70;4.30;;;15.60;82.00;;;;;;5014258;28;20449;-73
2022/04/16 06:22:29;;;;;;;4.90;4.50;;;15.60;82.00;;;;;;5049055;28;20419;-72
2022/04/16 06:24:59;;;;;;;4.30;3.97;;;15.60;82.10;;;;;;5031103;28;20817;-73
2022/04/16 06:27:33;;;;;;;4.73;4.33;;;15.60;82.10;;;;;;5034851;28;20462;-73
2022/04/16 06:30:01;;;;;;;5.00;4.50;;;15.60;82.10;;;;;;5035553;28;20459;-73
2022/04/16 06:32:29;;;;;;;5.00;4.60;;;15.60;82.00;;;;;;5042757;28;20527;-73
2022/04/16 06:34:57;;;;;;;5.63;3.90;;;15.60;82.10;;;;;;5031080;28;20501;-72
2022/04/16 06:37:25;;;;;;;4.13;3.73;;;15.60;82.20;;;;;;5053240;28;20473;-73
2022/04/16 06:39:53;;;;;;;5.83;5.33;;;15.50;82.10;;;;;;5036713;28;20550;-73
2022/04/16 06:42:26;;;;;;;5.93;5.37;;;15.60;82.10;;;;;;5051803;28;20435;-73
2022/04/16 06:44:54;;;;;;;5.53;5.03;;;15.50;81.80;;;;;;5038730;28;21020;-73
2022/04/16 06:47:22;;;;;;;5.97;5.40;;;15.60;81.30;;;;;;5022234;28;20564;-73
2022/04/16 06:49:50;;;;;;;5.40;4.90;;;15.60;81.20;;;;;;5033942;28;20467;-73
2022/04/16 06:52:19;;;;;;;5.10;4.70;;;15.60;81.60;;;;;;5013211;28;20476;-73
2022/04/16 06:54:47;;;;;;;4.30;3.90;;;15.60;81.70;;;;;;5012482;28;20556;-72
2022/04/16 06:57:15;;;;;;;4.07;3.77;;;15.60;81.90;;;;;;5029482;28;20429;-73
2022/04/16 06:59:45;;;;;;;4.43;4.03;;;15.60;81.80;;;;;;5033052;28;20435;-72
2022/04/16 07:02:13;;;;;;;4.30;3.93;;;15.60;81.90;;;;;;5037508;28;20851;-73
2022/04/16 07:04:41;;;;;;;3.70;3.40;;;15.60;81.90;;;;;;5013195;28;20528;-73
2022/04/16 07:07:10;;;;;;;3.73;3.00;;;15.60;81.90;;;;;;5039192;28;20462;-73
2022/04/16 07:09:39;;;;;;;4.40;4.00;;;15.60;81.90;;;;;;5044751;28;20510;-73
2022/04/16 07:12:09;;;;;;;3.27;2.97;;;15.60;81.90;;;;;;5035371;28;21039;-73
2022/04/16 07:14:39;;;;;;;3.27;2.97;;;15.60;81.80;;;;;;5050599;28;20455;-73
2022/04/16 07:17:09;;;;;;;3.47;3.17;;;15.60;82.00;;;;;;5040242;28;20890;-73
2022/04/16 07:19:38;;;;;;;3.53;3.33;;;15.70;81.90;;;;;;5052880;28;20423;-74
2022/04/16 07:22:06;;;;;;;3.63;3.33;;;15.60;81.80;;;;;;5025853;28;21014;-73
2022/04/16 07:24:38;;;;;;;3.17;2.97;;;15.70;81.90;;;;;;5011391;28;20544;-73
2022/04/16 07:27:06;;;;;;;3.60;3.30;;;15.70;81.80;;;;;;5032249;28;20468;-73
2022/04/16 07:29:34;;;;;;;3.80;3.50;;;15.70;81.80;;;;;;5035818;28;20459;-73
2022/04/16 07:32:02;;;;;;;3.27;2.97;;;15.70;81.70;;;;;;5047340;28;20468;-73
2022/04/16 07:34:32;;;;;;;3.30;3.00;;;15.70;81.80;;;;;;5035189;28;20499;-73
2022/04/16 07:37:00;;;;;;;4.10;3.60;;;15.70;81.80;;;;;;5039328;28;20472;-73
2022/04/16 07:39:28;;;;;;;3.93;3.63;;;15.70;81.80;;;;;;5035856;28;20489;-73
2022/04/16 07:41:57;;;;;;;2.93;2.73;;;15.70;81.80;;;;;;5036193;28;20524;-73
2022/04/16 07:44:25;;;;;;;3.70;3.40;;;15.70;81.70;;;;;;5038117;28;20861;-73
2022/04/16 07:46:53;;;;;;;4.40;4.00;;;15.70;81.90;;;;;;5021655;28;20476;-73
2022/04/16 07:49:21;;;;;;;3.60;3.30;;;15.70;81.70;;;;;;5016104;28;20441;-72
2022/04/16 07:51:51;;;;;;;3.90;3.60;;;15.70;81.60;;;;;;5033524;28;20984;-72
2022/04/16 07:54:21;;;;;;;3.90;3.60;;;15.70;81.50;;;;;;5031591;28;20497;-73
2022/04/16 07:56:49;;;;;;;4.13;3.23;;;15.70;81.50;;;;;;5045672;28;21065;-72
2022/04/16 07:59:17;;;;;;;3.40;3.10;;;15.70;81.50;;;;;;5045658;28;20436;-72
2022/04/16 08:01:45;;;;;;;3.70;3.40;;;15.70;81.50;;;;;;5031221;28;20464;-73
2022/04/16 08:04:13;;;;;;;3.73;3.43;;;15.70;81.50;;;;;;5025876;28;21034;-72
2022/04/16 08:06:41;;;;;;;4.30;4.00;;;15.70;81.50;;;;;;5043686;28;20466;-73
2022/04/16 08:09:11;;;;;;;3.73;3.43;;;15.70;81.40;;;;;;5036088;28;20449;-73
2022/04/16 08:11:39;;;;;;;4.70;4.30;;;15.70;81.40;;;;;;5037566;28;20558;-72
2022/04/16 08:14:07;;;;;;;3.80;3.40;;;15.70;81.50;;;;;;5050747;28;20455;-73
2022/04/16 08:16:35;;;;;;;3.90;3.60;;;15.70;81.40;;;;;;5042692;28;20512;-73
2022/04/16 08:19:03;;;;;;;5.10;3.83;;;15.70;81.50;;;;;;5019192;28;20514;-72
2022/04/16 08:21:32;;;;;;;4.10;3.70;;;15.70;81.50;;;;;;5029789;28;20909;-73
2022/04/16 08:24:12;;;;;;;3.83;3.53;;;15.70;81.50;;;;;;5038007;28;20472;-73
2022/04/16 08:26:42;;;;;;;4.17;3.80;;;15.70;81.40;;;;;;5040071;28;21003;-73
2022/04/16 08:29:11;;;;;;;4.57;4.20;;;15.70;81.40;;;;;;5048515;28;20990;-73
2022/04/16 08:31:39;;;;;;;3.93;3.63;;;15.70;81.50;;;;;;5043281;28;20508;-73
2022/04/16 08:34:27;;;;;;;3.97;3.67;;;15.70;81.40;;;;;;5047505;28;20447;-73
2022/04/16 08:36:55;;;;;;;8.10;7.27;;;15.70;81.50;;;;;;5051393;28;20472;-73
2022/04/16 08:39:23;;;;;;;15.10;11.53;;;15.70;79.90;;;;;;5036949;28;20448;-72
2022/04/16 08:41:55;;;;;;;12.90;11.63;;;15.60;77.30;;;;;;5030529;28;20529;-73
2022/04/16 08:44:25;;;;;;;10.40;8.10;;;15.50;76.20;;;;;;5048300;28;20541;-73
2022/04/16 08:46:55;;;;;;;10.93;7.87;;;15.50;77.60;;;;;;5034204;28;20525;-73
2022/04/16 08:49:25;;;;;;;11.30;9.27;;;15.50;78.50;;;;;;5038242;28;20794;-73
2022/04/16 08:51:56;;;;;;;8.90;8.10;;;15.50;78.80;;;;;;5058483;28;20502;-73
2022/04/16 08:54:25;;;;;;;8.07;7.00;;;15.50;78.90;;;;;;5025534;28;20820;-74
2022/04/16 08:56:54;;;;;;;8.27;7.43;;;15.50;79.10;;;;;;5017338;28;20527;-74
2022/04/16 08:59:22;;;;;;;7.90;7.20;;;15.50;79.00;;;;;;5034998;28;20427;-73
2022/04/16 09:01:51;;;;;;;8.50;7.70;;;15.50;79.10;;;;;;5039428;28;20467;-72
2022/04/16 09:04:20;;;;;;;8.20;7.50;;;15.50;79.00;;;;;;5043936;28;20524;-67
2022/04/16 09:06:59;;;;;;;8.10;7.40;;;15.50;79.10;;;;;;5051313;28;20481;-66
2022/04/16 09:09:27;;;;;;;7.00;6.30;;;15.50;79.10;;;;;;5045050;28;20481;-66
2022/04/16 09:11:57;;;;;;;7.20;6.50;;;15.50;79.20;;;;;;5036163;28;20993;-66
2022/04/16 09:14:34;;;;;;;9.20;7.00;;;15.60;79.40;;;;;;5036670;28;20503;-65
2022/04/16 09:17:08;;;;;;;7.90;7.10;;;15.60;79.40;;;;;;5052642;28;20848;-66
2022/04/16 09:19:36;;;;;;;6.37;5.77;;;15.60;79.50;;;;;;5019304;28;20498;-66
2022/04/16 09:22:05;;;;;;;6.20;5.70;;;15.60;79.50;;;;;;5040741;28;20467;-66
2022/04/16 09:24:45;;;;;;;7.90;6.80;;;15.60;79.60;;;;;;5023972;28;20835;-66
2022/04/16 09:27:15;;;;;;;6.20;5.37;;;15.50;79.50;;;;;;5044658;28;20447;-66
2022/04/16 09:29:44;;;;;;;7.30;6.50;;;15.60;79.70;;;;;;5047428;28;20419;-67
2022/04/16 09:32:22;;;;;;;6.60;6.00;;;15.60;79.70;;;;;;5028148;28;20472;-66
2022/04/16 09:34:50;;;;;;;6.20;5.60;;;15.50;79.60;;;;;;5040265;28;20989;-67
2022/04/16 09:37:18;;;;;;;6.33;5.70;;;15.50;79.70;;;;;;5052950;28;20538;-67
2022/04/16 09:39:47;;;;;;;5.47;4.97;;;15.60;79.90;;;;;;5047850;28;20447;-67
2022/04/16 09:42:26;;;;;;;5.50;4.80;;;15.50;79.90;;;;;;5050943;28;20482;-65
2022/04/16 09:44:55;;;;;;;5.17;4.77;;;15.50;79.80;;;;;;5032879;28;21044;-67
2022/04/16 09:47:25;;;;;;;6.20;5.70;;;15.50;79.90;;;;;;5036573;28;20442;-67
2022/04/16 09:49:54;;;;;;;4.37;4.00;;;15.50;80.00;;;;;;5034953;28;20463;-67
2022/04/16 09:52:24;;;;;;;4.80;4.30;;;15.50;80.00;;;;;;5035438;28;20472;-66
2022/04/16 09:54:57;;;;;;;5.00;4.60;;;15.50;80.00;;;;;;5045356;28;20505;-66
2022/04/16 09:57:30;;;;;;;5.00;4.60;;;15.50;80.00;;;;;;5038886;28;20452;-67
2022/04/16 10:00:03;;;;;;;4.73;4.33;;;15.50;80.00;;;;;;5035142;28;20494;-66
2022/04/16 10:02:41;;;;;;;5.00;4.50;;;15.50;80.00;;;;;;5043670;28;20775;-67
2022/04/16 10:05:11;;;;;;;6.07;5.00;;;15.50;80.10;;;;;;5028084;28;20531;-66
2022/04/16 10:07:39;;;;;;;5.23;4.83;;;15.50;79.10;;;;;;5032828;28;20504;-67
2022/04/16 10:10:17;;;;;;;7.47;5.83;;;15.50;79.10;;;;;;5021384;28;20489;-67
2022/04/16 10:13:03;;;;;;;5.30;4.80;;;15.60;77.80;;;;;;5034031;28;20857;-67
2022/04/16 10:15:52;;;;;;;5.90;4.33;;;15.60;78.10;;;;;;5024320;28;20481;-66
2022/04/16 10:18:21;;;;;;;5.23;4.77;;;15.60;78.80;;;;;;5032742;28;20527;-67
2022/04/16 10:20:53;;;;;;;5.10;4.70;;;15.60;79.00;;;;;;5035030;28;20510;-65
2022/04/16 10:23:30;;;;;;;5.60;5.10;;;15.60;79.20;;;;;;5030631;28;20460;-67
2022/04/16 10:26:03;;;;;;;6.50;4.43;;;15.50;79.10;;;;;;5022621;28;20473;-65
2022/04/16 10:28:40;;;;;;;4.80;4.40;;;15.60;79.40;;;;;;5044957;28;20429;-66
2022/04/16 10:31:20;;;;;;;4.43;4.00;;;15.60;79.30;;;;;;5034971;28;20474;-66
2022/04/16 10:33:59;;;;;;;5.00;4.50;;;15.60;79.40;;;;;;5037758;28;20514;-67
2022/04/16 10:36:32;;;;;;;4.53;4.13;;;15.60;79.40;;;;;;5033166;28;21142;-65
2022/04/16 10:39:01;;;;;;;4.57;4.13;;;15.50;79.40;;;;;;5039929;28;20432;-66
2022/04/16 10:41:29;;;;;;;7.40;5.30;;;15.60;79.40;;;;;;5033741;28;21009;-66
2022/04/16 10:44:00;;;;;;;18.17;6.95;;;15.60;78.00;;;;;;5040643;28;20438;-67
2022/04/16 10:46:44;;;;;;;8.23;4.77;;;15.60;75.40;;;;;;5041068;28;20233;-67
2022/04/16 10:49:13;;;;;;;9.47;5.20;;;15.60;76.50;;;;;;5031182;28;20448;-65
2022/04/16 10:51:41;;;;;;;7.80;5.00;;;15.60;76.70;;;;;;5032849;28;20498;-66
2022/04/16 10:54:10;;;;;;;7.43;4.67;;;15.60;77.00;;;;;;5031171;28;20470;-67
2022/04/16 10:56:40;;;;;;;13.40;4.90;;;15.60;77.30;;;;;;5040683;28;20471;-66
2022/04/16 10:59:11;;;;;;;5.00;4.50;;;15.60;77.70;;;;;;5040479;28;20428;-66
2022/04/16 11:01:39;;;;;;;4.80;4.30;;;15.60;77.80;;;;;;5042407;28;20592;-65
2022/04/16 11:04:14;;;;;;;5.97;4.80;;;15.60;77.90;;;;;;5041026;28;20566;-66
2022/04/16 11:06:45;;;;;;;5.70;4.67;;;15.60;78.20;;;;;;5050855;28;20501;-66
2022/04/16 11:09:16;;;;;;;5.20;4.70;;;15.60;78.10;;;;;;5041770;28;20539;-66
2022/04/16 11:11:44;;;;;;;5.20;4.70;;;15.60;78.30;;;;;;5036545;28;20589;-66
2022/04/16 11:14:14;;;;;;;4.93;4.53;;;15.60;78.20;;;;;;5032467;28;20456;-66
2022/04/16 11:16:47;;;;;;;5.40;4.47;;;15.60;78.40;;;;;;5036619;28;20539;-65
2022/04/16 11:19:16;;;;;;;4.97;4.57;;;15.60;78.40;;;;;;5015435;28;20459;-65
2022/04/16 11:21:45;;;;;;;3.60;3.40;;;15.60;78.60;;;;;;5026404;28;20476;-66
2022/04/16 11:24:15;;;;;;;6.47;4.00;;;15.60;78.50;;;;;;5028843;28;20471;-67
2022/04/16 11:35:04;;;;;;;5.47;4.03;;;15.60;78.60;;;;;;5038206;28;20452;-66
2022/04/16 11:37:32;;;;;;;4.87;4.30;;;15.60;78.50;;;;;;5039972;28;20493;-66
2022/04/16 11:40:03;;;;;;;4.40;4.00;;;15.60;78.30;;;;;;5037215;28;20486;-66
2022/04/16 11:42:31;;;;;;;4.60;3.83;;;15.60;79.80;;;;;;5035837;28;20444;-65
2022/04/16 11:45:02;;;;;;;3.43;3.23;;;15.60;78.50;;;;;;5049951;28;20461;-66
2022/04/16 11:47:31;;;;;;;4.30;3.77;;;15.60;78.40;;;;;;5046249;28;20451;-66
2022/04/16 11:50:02;;;;;;;4.37;3.87;;;15.60;78.70;;;;;;5037654;28;20458;-66
2022/04/16 11:52:31;;;;;;;3.77;3.47;;;15.60;78.60;;;;;;5048399;28;20461;-67
2022/04/16 11:55:01;;;;;;;4.47;4.07;;;15.60;78.70;;;;;;5020645;28;20548;-65
2022/04/16 11:57:30;;;;;;;4.10;3.70;;;15.60;78.40;;;;;;5045283;28;20456;-65
2022/04/16 12:00:02;;;;;;;3.90;3.23;;;15.60;78.60;;;;;;5031520;28;20486;-66
2022/04/16 12:02:35;;;;;;;4.27;3.90;;;15.60;78.20;;;;;;5032557;28;20453;-66
2022/04/16 12:05:11;;;;;;;3.27;3.00;;;15.60;78.00;;;;;;5039685;28;20450;-67
2022/04/16 12:07:44;;;;;;;3.37;3.17;;;15.60;78.50;;;;;;5033765;28;21007;-65
2022/04/16 12:10:14;;;;;;;4.70;4.20;;;15.70;78.40;;;;;;5019416;28;20461;-65
2022/04/16 12:12:47;;;;;;;3.57;2.87;;;15.60;78.30;;;;;;5050315;28;20446;-67
2022/04/16 12:15:24;;;;;;;3.43;3.13;;;15.60;78.60;;;;;;5046511;28;20821;-66
2022/04/16 12:17:53;;;;;;;3.70;3.37;;;15.70;78.30;;;;;;5030358;28;20472;-67
2022/04/16 12:20:22;;;;;;;3.67;3.43;;;15.60;77.90;;;;;;5042401;28;20460;-66
2022/04/16 12:22:52;;;;;;;2.93;2.73;;;15.60;79.60;;;;;;5032845;28;20514;-66
2022/04/16 12:25:28;;;;;;;3.40;3.10;;;15.70;78.50;;;;;;5021164;28;20561;-67
2022/04/16 12:27:57;;;;;;;3.63;3.33;;;15.70;78.10;;;;;;5033736;28;20431;-66
2022/04/16 12:30:28;;;;;;;4.00;3.33;;;15.70;77.30;;;;;;5030540;28;20467;-66
2022/04/16 12:32:59;;;;;;;5.40;3.27;;;15.70;77.20;;;;;;5028461;28;20436;-66
2022/04/16 12:35:27;;;;;;;3.13;2.83;;;15.70;76.90;;;;;;5036083;28;20578;-67
2022/04/16 12:37:56;;;;;;;3.20;2.90;;;15.70;76.40;;;;;;5040933;28;20452;-68
2022/04/16 12:40:25;;;;;;;3.57;2.90;;;15.70;75.70;;;;;;5030962;28;20463;-67
2022/04/16 12:42:56;;;;;;;4.27;3.47;;;15.70;76.50;;;;;;5042301;28;20439;-67
2022/04/16 12:45:28;;;;;;;3.60;3.30;;;15.70;77.10;;;;;;5049580;28;20463;-67
2022/04/16 12:47:56;;;;;;;3.50;3.20;;;15.70;77.10;;;;;;5037865;28;20520;-67
2022/04/16 12:50:26;;;;;;;4.00;3.47;;;15.70;76.20;;;;;;5050465;28;20481;-68
2022/04/16 12:52:54;;;;;;;3.43;3.13;;;15.70;75.80;;;;;;5035499;28;20792;-67
2022/04/16 12:55:25;;;;;;;3.63;3.33;;;15.70;76.80;;;;;;5014145;28;20997;-66
2022/04/16 12:57:53;;;;;;;3.60;2.97;;;15.70;76.70;;;;;;5042647;28;20948;-66
2022/04/16 13:00:21;;;;;;;3.77;3.47;;;15.70;76.70;;;;;;5035156;28;20463;-65
2022/04/16 13:02:51;;;;;;;3.20;2.93;;;15.70;76.80;;;;;;5028289;28;20448;-67
2022/04/16 13:05:19;;;;;;;3.13;2.83;;;15.80;76.90;;;;;;5032671;28;20452;-67
2022/04/16 13:07:48;;;;;;;3.30;3.00;;;15.80;76.20;;;;;;5040928;28;20458;-67
2022/04/16 13:10:16;;;;;;;2.70;2.43;;;15.80;76.60;;;;;;5039641;28;20459;-67
2022/04/16 13:12:45;;;;;;;3.17;2.93;;;15.80;76.10;;;;;;5034513;28;20440;-68
2022/04/16 13:15:14;;;;;;;4.33;3.17;;;15.80;76.80;;;;;;5029930;28;20484;-66
2022/04/16 13:17:42;;;;;;;9.17;3.93;;;15.70;77.30;;;;;;5026111;28;20449;-65